Time;durP1;ratioP1;P1;durP2;ratioP2;P2;SDS_P1;SDS_P2;PMS_P1;PMS_P2;Temp;Humidity;BMP_temperature;BMP_pressure;BME280_temperature;BME280_humidity;BME280_pressure;Samples;Min_cycle;Max_cycle;Signal;HPM_P1;HPM_P2
2023/12/29 00:02:26;;;;;;;;;;;;;;;5.30;64.90;100356.75;4453252;32;34897;-76
2023/12/29 00:04:54;;;;;;;;;;;;;;;5.29;64.62;100354.06;4453239;32;34843;-78
2023/12/29 00:07:21;;;;;;;;;;;;;;;5.42;63.71;100355.87;4454117;32;34822;-77
2023/12/29 00:09:48;;;;;;;;;;;;;;;5.38;63.41;100351.31;4453926;32;33090;-74
2023/12/29 00:12:16;;;;;;;;;;;;;;;5.21;63.96;100350.03;4458538;32;34232;-76
2023/12/29 00:14:44;;;;;;;;;;;;;;;5.22;64.36;100347.59;4453055;32;33643;-75
2023/12/29 00:17:11;;;;;;;;;;;;;;;5.16;64.36;100342.00;4452939;32;33915;-77
2023/12/29 00:19:39;;;;;;;;;;;;;;;5.17;64.71;100341.22;4455706;32;33119;-78
2023/12/29 00:22:06;;;;;;;;;;;;;;;5.31;64.68;100337.09;4454058;32;34139;-77
2023/12/29 00:24:35;;;;;;;;;;;;;;;5.48;63.64;100321.25;4452650;32;33494;-76
2023/12/29 00:27:03;;;;;;;;;;;;;;;5.51;63.48;100325.75;4440726;32;34464;-76
2023/12/29 00:29:32;;;;;;;;;;;;;;;5.18;64.32;100332.75;4453277;32;34415;-77
2023/12/29 00:32:02;;;;;;;;;;;;;;;5.17;64.91;100330.94;4454874;32;34195;-78
2023/12/29 00:34:31;;;;;;;;;;;;;;;4.86;65.99;100331.19;4444120;32;34919;-77
2023/12/29 00:37:00;;;;;;;;;;;;;;;4.90;66.47;100330.66;4452505;32;34041;-75
2023/12/29 00:39:38;;;;;;;;;;;;;;;5.15;66.12;100329.94;4457265;32;34073;-77
2023/12/29 00:42:06;;;;;;;;;;;;;;;5.20;66.01;100331.19;4453289;32;33780;-77
2023/12/29 00:44:34;;;;;;;;;;;;;;;5.15;66.38;100324.78;4454025;32;33785;-76
2023/12/29 00:47:01;;;;;;;;;;;;;;;5.23;66.45;100322.78;4459384;32;33861;-75
2023/12/29 00:49:29;;;;;;;;;;;;;;;5.28;66.60;100319.78;4454032;32;33011;-77
2023/12/29 00:51:56;;;;;;;;;;;;;;;5.37;66.46;100322.16;4461601;32;34311;-75
2023/12/29 00:54:25;;;;;;;;;;;;;;;5.28;67.00;100322.37;4459138;32;34183;-75
2023/12/29 00:56:56;;;;;;;;;;;;;;;5.01;67.91;100320.31;4453027;32;33818;-76
2023/12/29 00:59:23;;;;;;;;;;;;;;;5.30;67.00;100310.53;4456308;32;32878;-76
2023/12/29 01:01:51;;;;;;;;;;;;;;;5.44;66.26;100319.25;4461623;32;34835;-78
2023/12/29 01:04:18;;;;;;;;;;;;;;;5.43;66.00;100316.59;4457190;32;33795;-75
2023/12/29 01:06:46;;;;;;;;;;;;;;;5.52;65.11;100317.22;4464932;32;34247;-76
2023/12/29 01:09:15;;;;;;;;;;;;;;;5.41;65.22;100316.47;4452574;32;34110;-76
2023/12/29 01:11:43;;;;;;;;;;;;;;;5.16;66.11;100336.88;4450066;32;33841;-76
2023/12/29 01:14:10;;;;;;;;;;;;;;;5.16;66.21;100330.81;4455450;32;34395;-78
2023/12/29 01:16:37;;;;;;;;;;;;;;;5.28;65.75;100332.63;4450899;32;34123;-75
2023/12/29 01:19:05;;;;;;;;;;;;;;;5.16;65.54;100324.03;4453188;32;33438;-75
2023/12/29 01:21:33;;;;;;;;;;;;;;;5.39;65.24;100327.38;4450118;32;34082;-77
2023/12/29 01:24:03;;;;;;;;;;;;;;;5.53;64.33;100328.44;4449718;32;34144;-77
2023/12/29 01:26:31;;;;;;;;;;;;;;;5.31;65.07;100312.31;4463238;32;34236;-76
2023/12/29 01:28:58;;;;;;;;;;;;;;;5.07;65.13;100320.78;4454016;32;33384;-77
2023/12/29 01:31:28;;;;;;;;;;;;;;;5.05;65.45;100317.19;4466012;32;34072;-75
2023/12/29 01:33:56;;;;;;;;;;;;;;;5.02;65.98;100327.22;4450734;32;34000;-74
2023/12/29 01:36:23;;;;;;;;;;;;;;;5.10;65.79;100323.56;4451058;32;33781;-77
2023/12/29 01:38:51;;;;;;;;;;;;;;;5.31;64.83;100312.31;4465034;32;33399;-77
2023/12/29 01:41:19;;;;;;;;;;;;;;;5.21;65.22;100311.53;4438856;32;34073;-78
2023/12/29 01:43:56;;;;;;;;;;;;;;;5.11;65.99;100312.50;4442017;32;34275;-74
2023/12/29 01:46:31;;;;;;;;;;;;;;;5.26;64.94;100308.50;4452339;32;34290;-77
2023/12/29 01:48:58;;;;;;;;;;;;;;;5.24;65.36;100299.81;4449664;32;33268;-74
2023/12/29 01:51:27;;;;;;;;;;;;;;;5.06;65.91;100308.69;4441170;32;33938;-75
2023/12/29 01:53:55;;;;;;;;;;;;;;;4.95;66.28;100299.31;4442937;32;33953;-78
2023/12/29 01:56:22;;;;;;;;;;;;;;;4.89;66.61;100303.22;4442872;32;34775;-75
2023/12/29 01:58:49;;;;;;;;;;;;;;;4.92;66.95;100295.75;4453666;32;33755;-77
2023/12/29 02:01:17;;;;;;;;;;;;;;;4.99;66.98;100298.78;4447003;32;34221;-77
2023/12/29 02:03:45;;;;;;;;;;;;;;;5.05;67.06;100292.41;4457431;32;34320;-77
2023/12/29 02:06:13;;;;;;;;;;;;;;;5.21;65.56;100288.41;4452422;32;34544;-75
2023/12/29 02:08:40;;;;;;;;;;;;;;;4.98;66.39;100289.25;4435788;32;35443;-76
2023/12/29 02:11:09;;;;;;;;;;;;;;;4.92;66.67;100290.63;4448373;32;34051;-77
2023/12/29 02:13:36;;;;;;;;;;;;;;;5.26;65.15;100287.06;4425565;32;34211;-75
2023/12/29 02:16:06;;;;;;;;;;;;;;;5.29;64.64;100275.34;4446208;32;34261;-76
2023/12/29 02:18:33;;;;;;;;;;;;;;;5.12;65.53;100286.06;4435239;32;32359;-75
2023/12/29 02:21:02;;;;;;;;;;;;;;;4.96;65.52;100275.41;4425161;32;34970;-75
2023/12/29 02:23:30;;;;;;;;;;;;;;;4.71;66.02;100278.72;4443338;32;35016;-76
2023/12/29 02:25:58;;;;;;;;;;;;;;;4.53;66.54;100278.22;4416288;32;34891;-75
2023/12/29 02:28:26;;;;;;;;;;;;;;;4.63;66.75;100275.56;4430693;32;33319;-77
2023/12/29 02:30:53;;;;;;;;;;;;;;;4.77;66.70;100271.50;4427073;32;33866;-75
2023/12/29 02:33:21;;;;;;;;;;;;;;;4.80;66.46;100269.12;4436071;32;35063;-78
2023/12/29 02:35:51;;;;;;;;;;;;;;;4.95;66.48;100284.81;4431378;32;32551;-76
2023/12/29 02:38:19;;;;;;;;;;;;;;;4.84;66.92;100270.28;4420404;32;32962;-74
2023/12/29 02:40:46;;;;;;;;;;;;;;;5.09;65.72;100281.56;4430880;32;34322;-74
2023/12/29 02:43:14;;;;;;;;;;;;;;;4.77;66.51;100278.28;4424501;32;34033;-78
2023/12/29 02:45:42;;;;;;;;;;;;;;;4.65;67.80;100274.00;4433237;32;34651;-77
2023/12/29 02:48:09;;;;;;;;;;;;;;;4.78;67.71;100274.94;4434273;32;33905;-75
2023/12/29 02:50:37;;;;;;;;;;;;;;;4.86;67.62;100269.59;4429243;32;34351;-75
2023/12/29 02:53:04;;;;;;;;;;;;;;;4.99;67.75;100276.53;4428363;32;33877;-75
2023/12/29 02:55:32;;;;;;;;;;;;;;;5.15;66.73;100262.28;4418935;32;35018;-77
2023/12/29 02:57:59;;;;;;;;;;;;;;;4.92;67.41;100262.38;4434613;32;33836;-75
2023/12/29 03:00:28;;;;;;;;;;;;;;;5.02;67.12;100260.47;4411908;32;34684;-77
2023/12/29 03:02:55;;;;;;;;;;;;;;;5.06;67.16;100257.34;4430449;32;34247;-75
2023/12/29 03:05:23;;;;;;;;;;;;;;;4.58;68.01;100250.34;4419320;32;34497;-76
2023/12/29 03:07:50;;;;;;;;;;;;;;;4.58;68.35;100253.81;4409285;32;782068;-76
2023/12/29 03:10:18;;;;;;;;;;;;;;;4.58;68.41;100240.06;4436374;32;34245;-78
2023/12/29 03:12:46;;;;;;;;;;;;;;;4.81;67.53;100254.63;4434405;32;34865;-74
2023/12/29 03:15:13;;;;;;;;;;;;;;;4.87;67.06;100260.25;4433725;32;34933;-76
2023/12/29 03:17:40;;;;;;;;;;;;;;;4.76;67.66;100250.84;4431621;32;33424;-76
2023/12/29 03:20:08;;;;;;;;;;;;;;;4.75;67.81;100244.78;4435953;32;33962;-76
2023/12/29 03:22:36;;;;;;;;;;;;;;;4.72;67.65;100240.34;4436218;32;34061;-76
2023/12/29 03:25:03;;;;;;;;;;;;;;;4.84;67.92;100245.50;4436268;32;34053;-75
2023/12/29 03:27:31;;;;;;;;;;;;;;;5.01;67.13;100238.16;4437999;32;33846;-75
2023/12/29 03:29:58;;;;;;;;;;;;;;;4.78;68.13;100244.16;4437155;32;34000;-75
2023/12/29 03:32:25;;;;;;;;;;;;;;;5.01;67.80;100253.56;4435344;32;33033;-75
2023/12/29 03:34:53;;;;;;;;;;;;;;;4.69;69.10;100250.37;4438568;32;34869;-75
2023/12/29 03:37:20;;;;;;;;;;;;;;;4.95;68.35;100259.12;4438494;32;34164;-76
2023/12/29 03:39:47;;;;;;;;;;;;;;;5.09;68.25;100253.31;4430539;32;34275;-76
2023/12/29 03:42:15;;;;;;;;;;;;;;;5.22;67.81;100244.88;4435580;32;34324;-75
2023/12/29 03:44:42;;;;;;;;;;;;;;;5.34;67.27;100243.97;4443132;32;34997;-75
2023/12/29 03:47:10;;;;;;;;;;;;;;;5.36;67.02;100238.16;4439239;32;33335;-76
2023/12/29 03:49:38;;;;;;;;;;;;;;;5.34;67.32;100241.41;4438694;32;34805;-75
2023/12/29 03:52:05;;;;;;;;;;;;;;;5.40;67.27;100244.41;4426251;32;33485;-76
2023/12/29 03:54:32;;;;;;;;;;;;;;;5.41;66.54;100241.03;4435716;32;33926;-76
2023/12/29 03:57:00;;;;;;;;;;;;;;;5.20;67.15;100249.00;4430002;32;33533;-75
2023/12/29 03:59:27;;;;;;;;;;;;;;;5.21;67.27;100239.59;4441697;32;34856;-78
2023/12/29 04:01:55;;;;;;;;;;;;;;;5.29;67.34;100249.66;4443367;32;34395;-75
2023/12/29 04:04:23;;;;;;;;;;;;;;;5.36;67.17;100239.84;4424205;32;34341;-77
2023/12/29 04:06:50;;;;;;;;;;;;;;;4.76;68.62;100246.59;4442185;32;33082;-76
2023/12/29 04:09:18;;;;;;;;;;;;;;;4.68;69.68;100252.84;4457133;32;34005;-77
2023/12/29 04:11:45;;;;;;;;;;;;;;;4.98;69.13;100243.06;4454501;32;33624;-74
2023/12/29 04:14:13;;;;;;;;;;;;;;;4.97;69.35;100239.59;4454777;32;34437;-77
2023/12/29 04:16:43;;;;;;;;;;;;;;;4.85;70.10;100252.41;4458979;32;33056;-75
2023/12/29 04:19:10;;;;;;;;;;;;;;;4.82;70.17;100251.28;4455046;32;34301;-76
2023/12/29 04:21:41;;;;;;;;;;;;;;;4.78;70.44;100249.28;4448293;32;34726;-77
2023/12/29 04:24:09;;;;;;;;;;;;;;;4.96;69.69;100249.75;4456833;32;33676;-78
2023/12/29 04:26:36;;;;;;;;;;;;;;;4.93;69.85;100260.69;4459224;32;33837;-75
2023/12/29 04:29:04;;;;;;;;;;;;;;;4.90;69.57;100256.19;4453583;32;33762;-76
2023/12/29 04:31:31;;;;;;;;;;;;;;;4.95;69.48;100258.25;4448697;32;34979;-75
2023/12/29 04:33:58;;;;;;;;;;;;;;;4.91;69.34;100263.16;4455633;32;34113;-76
2023/12/29 04:36:26;;;;;;;;;;;;;;;4.88;69.18;100265.47;4420434;32;34119;-78
2023/12/29 04:38:54;;;;;;;;;;;;;;;5.09;68.72;100262.72;4458880;32;35633;-76
2023/12/29 04:41:22;;;;;;;;;;;;;;;4.98;69.05;100250.75;4450899;32;34330;-77
2023/12/29 04:43:49;;;;;;;;;;;;;;;4.94;68.96;100252.19;4437978;32;33450;-78
2023/12/29 04:46:17;;;;;;;;;;;;;;;5.09;67.90;100253.31;4458537;32;33372;-78
2023/12/29 04:48:44;;;;;;;;;;;;;;;4.90;68.30;100266.47;4440039;32;34052;-75
2023/12/29 04:51:12;;;;;;;;;;;;;;;4.96;68.20;100262.59;4458209;32;34597;-77
2023/12/29 04:53:39;;;;;;;;;;;;;;;4.88;68.40;100252.62;4452706;32;33683;-75
2023/12/29 04:56:10;;;;;;;;;;;;;;;4.98;68.26;100263.59;4463060;32;32912;-77
2023/12/29 04:58:37;;;;;;;;;;;;;;;4.92;68.30;100262.38;4458956;32;34252;-74
2023/12/29 05:01:04;;;;;;;;;;;;;;;4.82;68.65;100252.19;4457433;32;34270;-76
2023/12/29 05:03:32;;;;;;;;;;;;;;;4.85;68.39;100257.56;4454060;32;34237;-75
2023/12/29 05:05:59;;;;;;;;;;;;;;;5.09;67.91;100257.59;4444556;32;33468;-78
2023/12/29 05:08:26;;;;;;;;;;;;;;;5.09;67.72;100247.31;4442944;32;34833;-77
2023/12/29 05:10:55;;;;;;;;;;;;;;;5.22;66.66;100244.88;4447765;32;34284;-75
2023/12/29 05:13:22;;;;;;;;;;;;;;;5.03;67.09;100252.00;4450278;32;33990;-78
2023/12/29 05:15:49;;;;;;;;;;;;;;;5.08;66.80;100255.78;4453634;32;33268;-77
2023/12/29 05:18:17;;;;;;;;;;;;;;;4.98;66.93;100240.47;4454653;32;33610;-75
2023/12/29 05:20:44;;;;;;;;;;;;;;;4.93;66.51;100248.75;4453468;32;34251;-76
2023/12/29 05:23:11;;;;;;;;;;;;;;;4.84;66.90;100247.16;4453165;32;34049;-75
2023/12/29 05:25:39;;;;;;;;;;;;;;;5.08;66.24;100253.22;4454691;32;33713;-77
2023/12/29 05:28:06;;;;;;;;;;;;;;;5.04;66.42;100264.97;4451393;32;34088;-78
2023/12/29 05:30:33;;;;;;;;;;;;;;;4.94;66.20;100262.47;4446991;32;33624;-77
2023/12/29 05:33:01;;;;;;;;;;;;;;;5.02;66.06;100260.47;4455402;32;34926;-77
2023/12/29 05:35:28;;;;;;;;;;;;;;;5.13;65.31;100255.34;4448694;32;33504;-75
2023/12/29 05:37:55;;;;;;;;;;;;;;;4.90;66.48;100257.87;4443454;32;33708;-74
2023/12/29 05:40:23;;;;;;;;;;;;;;;4.75;66.95;100265.31;4452967;32;34257;-75
2023/12/29 05:42:50;;;;;;;;;;;;;;;4.61;67.05;100276.22;4453114;32;34073;-78
2023/12/29 05:45:18;;;;;;;;;;;;;;;4.73;67.19;100279.72;4443834;32;33389;-77
2023/12/29 05:47:45;;;;;;;;;;;;;;;5.02;66.30;100270.75;4458725;32;34825;-76
2023/12/29 05:50:13;;;;;;;;;;;;;;;5.02;66.05;100270.75;4448501;32;34914;-75
2023/12/29 05:52:40;;;;;;;;;;;;;;;4.87;66.78;100278.22;4449342;32;33976;-75
2023/12/29 05:55:07;;;;;;;;;;;;;;;4.63;67.30;100279.81;4452463;32;31940;-76
2023/12/29 05:57:35;;;;;;;;;;;;;;;4.91;66.63;100268.28;4453405;32;33836;-74
2023/12/29 06:00:02;;;;;;;;;;;;;;;4.96;66.82;100275.41;4465279;32;34284;-78
2023/12/29 06:02:38;;;;;;;;;;;;;;;4.98;67.15;100268.72;4442762;32;33977;-75
2023/12/29 06:05:05;;;;;;;;;;;;;;;4.86;67.34;100274.72;4453507;32;34140;-75
2023/12/29 06:07:33;;;;;;;;;;;;;;;4.72;68.51;100271.13;4453064;32;33933;-75
2023/12/29 06:10:00;;;;;;;;;;;;;;;4.77;68.23;100275.72;4465681;32;34219;-75
2023/12/29 06:12:28;;;;;;;;;;;;;;;4.68;68.53;100273.38;4453695;32;35124;-74
2023/12/29 06:14:55;;;;;;;;;;;;;;;4.83;68.58;100279.66;4453445;32;33520;-76
2023/12/29 06:17:22;;;;;;;;;;;;;;;4.99;68.33;100283.38;4453068;32;33995;-77
2023/12/29 06:19:50;;;;;;;;;;;;;;;5.05;68.16;100296.66;4444312;32;34239;-76
2023/12/29 06:22:17;;;;;;;;;;;;;;;5.06;67.31;100296.78;4460353;32;34256;-77
2023/12/29 06:24:44;;;;;;;;;;;;;;;4.80;67.54;100294.81;4461681;32;33603;-77
2023/12/29 06:27:12;;;;;;;;;;;;;;;4.83;67.64;100289.91;4450282;32;34208;-78
2023/12/29 06:29:41;;;;;;;;;;;;;;;4.93;66.77;100300.09;4452887;32;34823;-76
2023/12/29 06:32:08;;;;;;;;;;;;;;;4.87;67.42;100296.19;4446846;32;34253;-75
2023/12/29 06:34:35;;;;;;;;;;;;;;;4.64;67.93;100303.03;4461891;32;33233;-78
2023/12/29 06:37:03;;;;;;;;;;;;;;;4.74;67.64;100294.34;4447789;32;34713;-78
2023/12/29 06:39:30;;;;;;;;;;;;;;;4.94;66.85;100295.84;4451621;32;35014;-77
2023/12/29 06:41:58;;;;;;;;;;;;;;;4.76;67.34;100287.66;4452526;32;34315;-75
2023/12/29 06:44:25;;;;;;;;;;;;;;;4.73;67.51;100300.25;4451558;32;33543;-76
2023/12/29 06:46:52;;;;;;;;;;;;;;;4.73;67.74;100297.69;4446644;32;33980;-78
2023/12/29 06:49:20;;;;;;;;;;;;;;;4.82;67.68;100292.38;4451511;32;35224;-77
2023/12/29 06:51:48;;;;;;;;;;;;;;;4.85;67.65;100293.50;4455216;32;34218;-76
2023/12/29 06:54:15;;;;;;;;;;;;;;;4.87;67.65;100291.94;4448421;32;33394;-77
2023/12/29 06:56:43;;;;;;;;;;;;;;;4.93;67.66;100302.66;4450688;32;33978;-77
2023/12/29 06:59:10;;;;;;;;;;;;;;;5.19;66.54;100300.25;4435074;32;34732;-77
2023/12/29 07:01:40;;;;;;;;;;;;;;;5.11;66.25;100307.38;4429375;32;34253;-77
2023/12/29 07:04:10;;;;;;;;;;;;;;;5.12;66.03;100297.22;4454252;32;33788;-77
2023/12/29 07:06:38;;;;;;;;;;;;;;;4.99;66.50;100306.47;4438421;32;34046;-75
2023/12/29 07:09:07;;;;;;;;;;;;;;;4.99;66.43;100301.34;4454214;32;34703;-76
2023/12/29 07:11:35;;;;;;;;;;;;;;;4.87;66.85;100297.06;4460416;32;33785;-75
2023/12/29 07:14:02;;;;;;;;;;;;;;;4.73;67.46;100313.06;4442171;32;31749;-75
2023/12/29 07:16:29;;;;;;;;;;;;;;;4.82;67.79;100300.06;4456451;32;33769;-75
2023/12/29 07:18:57;;;;;;;;;;;;;;;4.93;67.68;100297.53;4454136;32;34219;-75
2023/12/29 07:21:24;;;;;;;;;;;;;;;4.90;67.82;100297.28;4437863;32;34109;-77
2023/12/29 07:23:52;;;;;;;;;;;;;;;4.89;68.07;100303.22;4450976;32;33188;-78
2023/12/29 07:26:19;;;;;;;;;;;;;;;4.90;68.02;100302.41;4456027;32;33901;-76
2023/12/29 07:28:46;;;;;;;;;;;;;;;4.82;68.32;100312.91;4455093;32;33634;-75
2023/12/29 07:31:14;;;;;;;;;;;;;;;4.81;68.49;100312.00;4442386;32;33397;-78
2023/12/29 07:33:42;;;;;;;;;;;;;;;4.79;68.94;100318.72;4452643;32;33999;-78
2023/12/29 07:36:09;;;;;;;;;;;;;;;5.01;68.48;100316.06;4451401;32;33616;-75
2023/12/29 07:38:37;;;;;;;;;;;;;;;4.85;69.18;100308.91;4451624;32;34696;-75
2023/12/29 07:41:04;;;;;;;;;;;;;;;4.97;68.88;100313.16;4453667;32;34320;-75
2023/12/29 07:43:31;;;;;;;;;;;;;;;5.08;68.78;100309.69;4454002;32;34046;-76
2023/12/29 07:45:58;;;;;;;;;;;;;;;5.22;68.52;100300.47;4454135;32;34522;-75
2023/12/29 07:48:26;;;;;;;;;;;;;;;5.25;68.45;100299.03;4448739;32;34262;-77
2023/12/29 07:50:53;;;;;;;;;;;;;;;5.12;69.15;100304.03;4450751;32;33966;-76
2023/12/29 07:53:21;;;;;;;;;;;;;;;5.11;69.41;100302.25;4439136;32;33287;-75
2023/12/29 07:55:50;;;;;;;;;;;;;;;4.93;70.20;100292.38;4452565;32;34185;-76
2023/12/29 07:58:17;;;;;;;;;;;;;;;4.90;70.50;100292.13;4450153;32;34485;-76
2023/12/29 08:00:44;;;;;;;;;;;;;;;5.39;69.00;100296.56;4452530;32;34201;-77
2023/12/29 08:03:12;;;;;;;;;;;;;;;5.58;67.72;100291.09;4440910;32;33891;-75
2023/12/29 08:05:39;;;;;;;;;;;;;;;5.43;67.63;100291.78;4453889;32;33931;-77
2023/12/29 08:08:07;;;;;;;;;;;;;;;5.34;67.93;100295.34;4452338;32;34040;-76
2023/12/29 08:10:34;;;;;;;;;;;;;;;5.31;68.27;100296.00;4448905;32;33975;-76
2023/12/29 08:13:01;;;;;;;;;;;;;;;4.95;69.78;100296.75;4452390;32;33384;-77
2023/12/29 08:15:29;;;;;;;;;;;;;;;4.97;69.91;100310.59;4453742;32;33818;-75
2023/12/29 08:17:56;;;;;;;;;;;;;;;5.21;69.52;100314.97;4438133;32;34274;-75
2023/12/29 08:20:24;;;;;;;;;;;;;;;5.18;69.87;100319.91;4449124;32;34103;-77
2023/12/29 08:22:52;;;;;;;;;;;;;;;5.08;69.88;100318.31;4452059;32;33353;-77
2023/12/29 08:25:19;;;;;;;;;;;;;;;5.16;70.04;100325.69;4452272;32;34852;-77
2023/12/29 08:27:46;;;;;;;;;;;;;;;5.06;70.34;100313.84;4450660;32;33936;-75
2023/12/29 08:30:14;;;;;;;;;;;;;;;5.45;69.00;100315.91;4449928;32;33804;-76
2023/12/29 08:32:41;;;;;;;;;;;;;;;5.25;69.93;100311.87;4450837;32;34065;-75
2023/12/29 08:35:09;;;;;;;;;;;;;;;5.31;70.23;100312.31;4453470;32;33900;-76
2023/12/29 08:37:37;;;;;;;;;;;;;;;5.46;69.82;100321.94;4447591;32;34036;-76
2023/12/29 08:40:06;;;;;;;;;;;;;;;5.46;69.88;100319.34;4437694;32;35051;-76
2023/12/29 08:42:33;;;;;;;;;;;;;;;5.48;70.20;100322.94;4438100;32;33387;-76
2023/12/29 08:45:00;;;;;;;;;;;;;;;5.74;70.08;100313.62;4453113;32;34859;-75
2023/12/29 08:47:28;;;;;;;;;;;;;;;5.87;69.82;100316.31;4453583;32;34908;-76
2023/12/29 08:49:55;;;;;;;;;;;;;;;5.93;70.32;100316.78;4454063;32;33618;-75
2023/12/29 08:52:22;;;;;;;;;;;;;;;6.10;70.24;100313.75;4451972;32;33352;-76
2023/12/29 08:54:50;;;;;;;;;;;;;;;6.20;70.21;100316.94;4451571;32;34140;-75
2023/12/29 08:57:17;;;;;;;;;;;;;;;6.41;70.68;100313.34;4448690;32;33986;-75
2023/12/29 08:59:44;;;;;;;;;;;;;;;6.52;70.53;100315.75;4451155;32;34661;-74
2023/12/29 09:02:12;;;;;;;;;;;;;;;6.77;70.28;100305.44;4439641;32;33527;-75
2023/12/29 09:04:39;;;;;;;;;;;;;;;6.37;71.81;100313.88;4452195;32;33899;-77
2023/12/29 09:07:06;;;;;;;;;;;;;;;6.56;72.03;100313.47;4451003;32;34230;-76
2023/12/29 09:09:34;;;;;;;;;;;;;;;6.66;72.11;100317.56;4453354;32;34746;-76
2023/12/29 09:12:01;;;;;;;;;;;;;;;6.74;72.24;100326.72;4453707;32;33214;-76
2023/12/29 09:14:31;;;;;;;;;;;;;;;6.85;72.31;100320.59;4437733;32;34510;-76
2023/12/29 09:16:59;;;;;;;;;;;;;;;7.13;72.27;100304.44;4448553;32;34211;-76
2023/12/29 09:19:27;;;;;;;;;;;;;;;7.27;72.58;100301.09;4449915;32;34866;-75
2023/12/29 09:22:06;;;;;;;;;;;;;;;7.53;72.64;100296.72;4437502;32;33008;-75
2023/12/29 09:24:33;;;;;;;;;;;;;;;7.63;72.56;100285.31;4447600;32;34192;-76
2023/12/29 09:27:00;;;;;;;;;;;;;;;7.99;72.68;100289.34;4453232;32;33709;-77
2023/12/29 09:29:28;;;;;;;;;;;;;;;8.40;72.07;100288.47;4452437;32;34055;-77
2023/12/29 09:31:55;;;;;;;;;;;;;;;8.55;72.93;100290.22;4449222;32;34237;-75
2023/12/29 09:34:22;;;;;;;;;;;;;;;8.96;71.37;100292.69;4452633;32;33747;-74
2023/12/29 09:36:50;;;;;;;;;;;;;;;9.12;71.67;100297.06;4452458;32;33597;-77
2023/12/29 09:39:18;;;;;;;;;;;;;;;9.30;72.01;100293.75;4453687;32;34527;-74
2023/12/29 09:41:46;;;;;;;;;;;;;;;9.55;71.45;100291.78;4442814;32;33896;-77
2023/12/29 09:44:14;;;;;;;;;;;;;;;9.58;71.30;100286.78;4452413;32;34003;-77
2023/12/29 09:46:42;;;;;;;;;;;;;;;9.89;70.83;100288.50;4438106;32;34207;-78
2023/12/29 09:49:09;;;;;;;;;;;;;;;10.33;65.66;100296.91;4439865;32;34666;-76
2023/12/29 09:51:38;;;;;;;;;;;;;;;10.25;65.91;100293.88;4453758;32;33246;-76
2023/12/29 09:54:05;;;;;;;;;;;;;;;10.25;64.72;100293.88;4453469;32;34296;-76
2023/12/29 09:56:32;;;;;;;;;;;;;;;10.37;64.35;100294.59;4439599;32;34272;-75
2023/12/29 09:58:59;;;;;;;;;;;;;;;10.41;63.62;100295.63;4438500;32;33637;-77
2023/12/29 10:01:29;;;;;;;;;;;;;;;10.50;63.21;100292.62;4433354;32;33359;-75
2023/12/29 10:03:57;;;;;;;;;;;;;;;10.43;63.45;100281.97;4438021;32;33125;-75
2023/12/29 10:06:25;;;;;;;;;;;;;;;10.40;63.97;100274.00;4449078;32;33813;-75
2023/12/29 10:08:52;;;;;;;;;;;;;;;10.57;63.10;100268.84;4447732;32;34204;-75
2023/12/29 10:11:21;;;;;;;;;;;;;;;10.39;63.63;100263.56;4432605;32;33206;-77
2023/12/29 10:13:49;;;;;;;;;;;;;;;10.17;64.85;100267.56;4452419;32;33809;-76
2023/12/29 10:16:25;;;;;;;;;;;;;;;10.22;64.81;100267.84;4451060;32;33958;-77
2023/12/29 10:18:59;;;;;;;;;;;;;;;10.53;64.48;100261.72;4442248;32;34552;-75
2023/12/29 10:21:30;;;;;;;;;;;;;;;10.70;63.61;100253.13;4426685;32;33305;-75
2023/12/29 10:24:03;;;;;;;;;;;;;;;10.63;64.08;100251.91;4439919;32;34929;-77
2023/12/29 10:26:33;;;;;;;;;;;;;;;10.64;64.63;100257.97;4443514;32;34324;-76
2023/12/29 10:29:00;;;;;;;;;;;;;;;10.79;64.20;100253.56;4450143;32;33938;-76
2023/12/29 10:31:28;;;;;;;;;;;;;;;10.85;64.42;100246.94;4445344;32;32682;-76
2023/12/29 10:34:16;;;;;;;;;;;;;;;10.74;64.42;100247.28;4445995;32;34310;-76
2023/12/29 10:36:48;;;;;;;;;;;;;;;10.82;64.30;100245.97;4441886;32;33722;-77
2023/12/29 10:39:15;;;;;;;;;;;;;;;11.04;64.22;100244.44;4435590;32;34565;-75
2023/12/29 10:41:42;;;;;;;;;;;;;;;11.21;63.50;100245.28;4438880;32;33214;-77
2023/12/29 10:44:10;;;;;;;;;;;;;;;11.20;63.43;100239.22;4438248;32;33487;-77
2023/12/29 10:46:37;;;;;;;;;;;;;;;11.11;64.13;100230.09;4448773;32;34272;-75
2023/12/29 10:49:09;;;;;;;;;;;;;;;11.25;63.86;100233.37;4452711;32;34365;-77
2023/12/29 10:51:37;;;;;;;;;;;;;;;11.51;63.22;100224.25;4448727;32;34171;-76
2023/12/29 10:54:04;;;;;;;;;;;;;;;11.58;62.72;100219.41;4453041;32;34909;-75
2023/12/29 10:56:31;;;;;;;;;;;;;;;11.50;62.91;100222.47;4435883;32;34906;-75
2023/12/29 10:59:03;;;;;;;;;;;;;;;11.60;62.38;100222.09;4452336;32;34777;-78
2023/12/29 11:01:31;;;;;;;;;;;;;;;11.83;75.86;100214.50;4441965;32;33470;-75
2023/12/29 11:03:59;;;;;;;;;;;;;;;12.55;71.49;100207.34;4429518;32;33945;-78
2023/12/29 11:06:28;;;;;;;;;;;;;;;12.76;67.23;100200.47;4427263;32;32603;-74
2023/12/29 11:08:56;;;;;;;;;;;;;;;12.97;63.43;100199.59;4453969;32;34074;-76
2023/12/29 11:11:23;;;;;;;;;;;;;;;13.14;61.57;100195.97;4459047;32;33660;-75
2023/12/29 11:14:09;;;;;;;;;;;;;;;13.13;64.54;100191.62;4441610;32;35819;-76
2023/12/29 11:16:37;;;;;;;;;;;;;;;13.40;61.47;100188.34;4455928;32;34032;-76
2023/12/29 11:19:04;;;;;;;;;;;;;;;13.75;59.63;100188.84;4450365;32;35087;-75
2023/12/29 11:21:32;;;;;;;;;;;;;;;14.02;56.13;100175.09;4439496;32;33545;-77
2023/12/29 11:23:59;;;;;;;;;;;;;;;13.74;59.93;100193.16;4437127;32;34328;-75
2023/12/29 11:26:26;;;;;;;;;;;;;;;14.00;57.48;100180.22;4450965;32;35102;-76
2023/12/29 11:28:54;;;;;;;;;;;;;;;13.92;57.69;100176.47;4445846;32;33793;-77
2023/12/29 11:31:21;;;;;;;;;;;;;;;14.04;60.73;100160.41;4453065;32;34084;-77
2023/12/29 11:34:00;;;;;;;;;;;;;;;14.30;56.40;100162.22;4447390;32;33680;-78
2023/12/29 11:36:32;;;;;;;;;;;;;;;14.22;57.05;100154.97;4427568;32;35028;-78
2023/12/29 11:39:06;;;;;;;;;;;;;;;14.46;58.65;100154.94;4449203;32;34088;-78
2023/12/29 11:41:49;;;;;;;;;;;;;;;14.61;56.07;100154.63;4428674;32;33084;-78
2023/12/29 11:44:29;;;;;;;;;;;;;;;14.62;54.92;100146.88;4442394;32;34991;-78
2023/12/29 11:46:57;;;;;;;;;;;;;;;14.98;52.93;100150.62;4447009;32;33933;-77
2023/12/29 11:49:32;;;;;;;;;;;;;;;14.75;54.79;100142.94;4450262;32;34273;-77
2023/12/29 11:52:01;;;;;;;;;;;;;;;15.09;52.66;100147.53;4438201;32;33116;-78
2023/12/29 11:54:29;;;;;;;;;;;;;;;15.28;52.10;100138.56;4434464;32;32237;-78
2023/12/29 11:56:56;;;;;;;;;;;;;;;15.34;50.97;100137.88;4458055;32;34811;-76
2023/12/29 11:59:24;;;;;;;;;;;;;;;15.02;52.01;100131.63;4447045;32;34361;-76
2023/12/29 12:01:52;;;;;;;;;;;;;;;15.07;52.55;100128.34;4465980;32;33974;-77
2023/12/29 12:04:42;;;;;;;;;;;;;;;14.88;53.01;100132.06;4456361;32;34354;-77
2023/12/29 12:07:17;;;;;;;;;;;;;;;15.08;52.45;100127.47;4463921;32;34071;-78
2023/12/29 12:09:49;;;;;;;;;;;;;;;14.90;53.46;100126.91;4449833;32;33913;-76
2023/12/29 12:12:35;;;;;;;;;;;;;;;14.93;53.38;100127.00;4442227;32;33860;-76
2023/12/29 12:15:04;;;;;;;;;;;;;;;15.31;52.29;100129.94;4463219;32;34771;-77
2023/12/29 12:17:32;;;;;;;;;;;;;;;15.44;52.12;100121.66;4460239;32;34063;-77
2023/12/29 12:20:02;;;;;;;;;;;;;;;15.59;50.60;100116.00;4466045;32;34365;-76
2023/12/29 12:22:31;;;;;;;;;;;;;;;15.53;50.83;100121.94;4453007;32;32464;-76
2023/12/29 12:25:01;;;;;;;;;;;;;;;15.71;51.05;100115.47;4454062;32;34699;-77
2023/12/29 12:27:29;;;;;;;;;;;;;;;15.47;51.91;100119.13;4439929;32;34113;-77
2023/12/29 12:29:59;;;;;;;;;;;;;;;15.64;51.00;100108.28;4452549;32;34483;-77
2023/12/29 12:32:27;;;;;;;;;;;;;;;15.79;51.07;100111.37;4456801;32;32790;-77
2023/12/29 12:34:55;;;;;;;;;;;;;;;15.81;51.12;100103.59;4462534;32;33753;-78
2023/12/29 12:37:23;;;;;;;;;;;;;;;16.03;50.31;100102.44;4459792;32;34910;-76
2023/12/29 12:39:50;;;;;;;;;;;;;;;16.15;50.54;100107.12;4460279;32;34058;-78
2023/12/29 12:42:18;;;;;;;;;;;;;;;16.19;49.80;100101.16;4442511;32;33300;-78
2023/12/29 12:45:03;;;;;;;;;;;;;;;16.44;49.20;100100.09;4464290;32;34927;-77
2023/12/29 12:47:35;;;;;;;;;;;;;;;16.86;48.41;100104.63;4453591;32;34807;-77
2023/12/29 12:50:02;;;;;;;;;;;;;;;17.06;46.75;100106.00;4440805;32;35061;-76
2023/12/29 12:52:30;;;;;;;;;;;;;;;16.98;46.23;100110.16;4443180;32;33075;-77